sensor_id;sensor_type;location;lat;lon;timestamp;temperature;humidity
52125;DHT22;38119;52.710;6.398;2022-08-19T00:34:43;17.80;99.90
52125;DHT22;38119;52.710;6.398;2022-08-19T00:37:08;17.80;99.90
52125;DHT22;38119;52.710;6.398;2022-08-19T00:39:34;17.70;99.90
52125;DHT22;38119;52.710;6.398;2022-08-19T00:42:00;17.70;99.90
52125;DHT22;38119;52.710;6.398;2022-08-19T00:44:28;17.70;99.90
52125;DHT22;38119;52.710;6.398;2022-08-19T00:46:56;17.70;99.90
52125;DHT22;38119;52.710;6.398;2022-08-19T00:51:59;17.60;99.90
52125;DHT22;38119;52.710;6.398;2022-08-19T00:54:25;17.60;99.90
52125;DHT22;38119;52.710;6.398;2022-08-19T00:56:52;17.60;99.90
52125;DHT22;38119;52.710;6.398;2022-08-19T00:59:18;17.50;99.90
52125;DHT22;38119;52.710;6.398;2022-08-19T01:01:45;17.60;99.90
52125;DHT22;38119;52.710;6.398;2022-08-19T01:04:12;17.50;99.90
52125;DHT22;38119;52.710;6.398;2022-08-19T01:06:39;17.50;99.90
52125;DHT22;38119;52.710;6.398;2022-08-19T01:09:07;17.50;99.90
52125;DHT22;38119;52.710;6.398;2022-08-19T01:11:36;17.50;99.90
52125;DHT22;38119;52.710;6.398;2022-08-19T01:17:44;17.50;99.90
52125;DHT22;38119;52.710;6.398;2022-08-19T01:20:17;17.50;99.90
52125;DHT22;38119;52.710;6.398;2022-08-19T01:22:49;17.40;99.90
52125;DHT22;38119;52.710;6.398;2022-08-19T01:25:18;17.40;99.90
52125;DHT22;38119;52.710;6.398;2022-08-19T01:27:47;17.40;99.90
52125;DHT22;38119;52.710;6.398;2022-08-19T01:30:18;17.30;99.90
52125;DHT22;38119;52.710;6.398;2022-08-19T01:32:44;17.40;99.90
52125;DHT22;38119;52.710;6.398;2022-08-19T01:35:11;17.40;99.90
52125;DHT22;38119;52.710;6.398;2022-08-19T01:40:22;17.30;99.90
52125;DHT22;38119;52.710;6.398;2022-08-19T01:42:49;17.30;99.90
52125;DHT22;38119;52.710;6.398;2022-08-19T01:45:15;17.30;99.90
52125;DHT22;38119;52.710;6.398;2022-08-19T01:47:41;17.30;99.90
52125;DHT22;38119;52.710;6.398;2022-08-19T01:50:08;17.30;99.90
52125;DHT22;38119;52.710;6.398;2022-08-19T01:52:39;17.30;99.90
52125;DHT22;38119;52.710;6.398;2022-08-19T01:55:07;17.30;99.90
52125;DHT22;38119;52.710;6.398;2022-08-19T01:57:34;17.20;99.90
52125;DHT22;38119;52.710;6.398;2022-08-19T02:00:00;17.30;99.90
52125;DHT22;38119;52.710;6.398;2022-08-19T02:02:30;17.20;99.90
52125;DHT22;38119;52.710;6.398;2022-08-19T02:04:55;17.20;99.90
52125;DHT22;38119;52.710;6.398;2022-08-19T02:07:21;17.40;99.90
52125;DHT22;38119;52.710;6.398;2022-08-19T02:09:50;17.20;99.90
52125;DHT22;38119;52.710;6.398;2022-08-19T02:12:15;17.10;99.90
52125;DHT22;38119;52.710;6.398;2022-08-19T02:14:44;17.20;99.90
52125;DHT22;38119;52.710;6.398;2022-08-19T02:17:13;17.10;99.90
52125;DHT22;38119;52.710;6.398;2022-08-19T02:19:39;17.10;99.90
52125;DHT22;38119;52.710;6.398;2022-08-19T02:22:04;17.10;99.90
52125;DHT22;38119;52.710;6.398;2022-08-19T02:24:31;17.30;99.90
52125;DHT22;38119;52.710;6.398;2022-08-19T02:26:56;17.00;99.90
52125;DHT22;38119;52.710;6.398;2022-08-19T02:29:22;17.00;99.90
52125;DHT22;38119;52.710;6.398;2022-08-19T02:31:49;16.90;99.90
52125;DHT22;38119;52.710;6.398;2022-08-19T02:34:14;16.90;99.90
52125;DHT22;38119;52.710;6.398;2022-08-19T02:36:41;16.80;99.90
52125;DHT22;38119;52.710;6.398;2022-08-19T02:39:06;16.80;99.90
52125;DHT22;38119;52.710;6.398;2022-08-19T02:41:33;16.80;99.90
52125;DHT22;38119;52.710;6.398;2022-08-19T02:44:02;16.80;99.90
52125;DHT22;38119;52.710;6.398;2022-08-19T02:46:31;16.80;99.90
52125;DHT22;38119;52.710;6.398;2022-08-19T02:49:00;16.80;99.90
52125;DHT22;38119;52.710;6.398;2022-08-19T02:51:32;16.80;99.90
52125;DHT22;38119;52.710;6.398;2022-08-19T02:53:58;16.80;99.90
52125;DHT22;38119;52.710;6.398;2022-08-19T02:56:25;16.80;99.90
52125;DHT22;38119;52.710;6.398;2022-08-19T02:58:53;16.70;99.90
52125;DHT22;38119;52.710;6.398;2022-08-19T03:01:31;16.70;99.90
52125;DHT22;38119;52.710;6.398;2022-08-19T03:04:00;16.50;99.90
52125;DHT22;38119;52.710;6.398;2022-08-19T03:06:27;16.70;99.90
52125;DHT22;38119;52.710;6.398;2022-08-19T03:08:53;16.70;99.90
52125;DHT22;38119;52.710;6.398;2022-08-19T03:11:22;16.70;99.90
52125;DHT22;38119;52.710;6.398;2022-08-19T03:13:49;16.80;99.90
52125;DHT22;38119;52.710;6.398;2022-08-19T03:16:21;16.60;99.90
52125;DHT22;38119;52.710;6.398;2022-08-19T03:18:47;16.50;99.90
52125;DHT22;38119;52.710;6.398;2022-08-19T03:21:18;16.50;99.90
52125;DHT22;38119;52.710;6.398;2022-08-19T03:23:44;16.40;99.90
52125;DHT22;38119;52.710;6.398;2022-08-19T03:26:10;16.40;99.90
52125;DHT22;38119;52.710;6.398;2022-08-19T03:28:36;16.40;99.90
52125;DHT22;38119;52.710;6.398;2022-08-19T03:31:09;16.30;99.90
52125;DHT22;38119;52.710;6.398;2022-08-19T03:33:35;16.30;99.90
52125;DHT22;38119;52.710;6.398;2022-08-19T03:38:31;16.30;99.90
52125;DHT22;38119;52.710;6.398;2022-08-19T03:40:57;16.20;99.90
52125;DHT22;38119;52.710;6.398;2022-08-19T03:43:24;16.20;99.90
52125;DHT22;38119;52.710;6.398;2022-08-19T03:46:00;16.30;99.90
52125;DHT22;38119;52.710;6.398;2022-08-19T03:48:26;16.20;99.90
52125;DHT22;38119;52.710;6.398;2022-08-19T03:50:54;16.10;99.90
52125;DHT22;38119;52.710;6.398;2022-08-19T03:53:20;16.10;99.90
52125;DHT22;38119;52.710;6.398;2022-08-19T03:55:46;16.10;99.90
52125;DHT22;38119;52.710;6.398;2022-08-19T03:58:12;16.00;99.90
52125;DHT22;38119;52.710;6.398;2022-08-19T04:00:37;16.00;99.90
52125;DHT22;38119;52.710;6.398;2022-08-19T04:03:06;16.00;99.90
52125;DHT22;38119;52.710;6.398;2022-08-19T04:05:32;16.00;99.90
52125;DHT22;38119;52.710;6.398;2022-08-19T04:07:58;15.90;99.90
52125;DHT22;38119;52.710;6.398;2022-08-19T04:10:24;15.90;99.90
52125;DHT22;38119;52.710;6.398;2022-08-19T04:12:50;15.90;99.90
52125;DHT22;38119;52.710;6.398;2022-08-19T04:15:16;15.90;99.90
52125;DHT22;38119;52.710;6.398;2022-08-19T04:17:41;15.80;99.90
52125;DHT22;38119;52.710;6.398;2022-08-19T04:20:08;15.90;99.90
52125;DHT22;38119;52.710;6.398;2022-08-19T04:22:36;15.90;99.90
52125;DHT22;38119;52.710;6.398;2022-08-19T04:25:02;15.80;99.90
52125;DHT22;38119;52.710;6.398;2022-08-19T04:27:28;15.80;99.90
52125;DHT22;38119;52.710;6.398;2022-08-19T04:29:54;15.90;99.90
52125;DHT22;38119;52.710;6.398;2022-08-19T04:32:21;15.80;99.90
52125;DHT22;38119;52.710;6.398;2022-08-19T04:34:48;15.70;99.90
52125;DHT22;38119;52.710;6.398;2022-08-19T04:37:13;15.80;99.90
52125;DHT22;38119;52.710;6.398;2022-08-19T04:39:39;15.80;99.90
52125;DHT22;38119;52.710;6.398;2022-08-19T04:42:24;15.70;99.90
52125;DHT22;38119;52.710;6.398;2022-08-19T04:45:12;15.80;99.90
52125;DHT22;38119;52.710;6.398;2022-08-19T04:47:39;15.70;99.90
52125;DHT22;38119;52.710;6.398;2022-08-19T04:50:06;15.80;99.90
52125;DHT22;38119;52.710;6.398;2022-08-19T04:52:33;15.80;99.90
52125;DHT22;38119;52.710;6.398;2022-08-19T04:55:03;15.80;99.90
52125;DHT22;38119;52.710;6.398;2022-08-19T04:57:31;15.80;99.90
52125;DHT22;38119;52.710;6.398;2022-08-19T04:59:57;15.80;99.90
52125;DHT22;38119;52.710;6.398;2022-08-19T05:02:22;15.80;99.90
52125;DHT22;38119;52.710;6.398;2022-08-19T05:04:51;15.80;99.90
52125;DHT22;38119;52.710;6.398;2022-08-19T05:07:21;15.70;99.90
52125;DHT22;38119;52.710;6.398;2022-08-19T05:09:47;15.70;99.90
52125;DHT22;38119;52.710;6.398;2022-08-19T05:12:13;15.70;99.90
52125;DHT22;38119;52.710;6.398;2022-08-19T05:14:39;15.70;99.90
52125;DHT22;38119;52.710;6.398;2022-08-19T05:17:04;15.50;99.90
52125;DHT22;38119;52.710;6.398;2022-08-19T05:19:30;15.60;99.90
52125;DHT22;38119;52.710;6.398;2022-08-19T05:22:14;15.60;99.90
52125;DHT22;38119;52.710;6.398;2022-08-19T05:25:06;15.60;99.90
52125;DHT22;38119;52.710;6.398;2022-08-19T05:27:33;15.60;99.90
52125;DHT22;38119;52.710;6.398;2022-08-19T05:29:59;15.90;99.90
52125;DHT22;38119;52.710;6.398;2022-08-19T05:32:25;15.60;99.90
52125;DHT22;38119;52.710;6.398;2022-08-19T05:34:50;15.70;99.90
52125;DHT22;38119;52.710;6.398;2022-08-19T05:37:17;15.60;99.90
52125;DHT22;38119;52.710;6.398;2022-08-19T05:39:43;15.70;99.90
52125;DHT22;38119;52.710;6.398;2022-08-19T05:42:11;15.70;99.90
52125;DHT22;38119;52.710;6.398;2022-08-19T05:44:39;15.80;99.90
52125;DHT22;38119;52.710;6.398;2022-08-19T05:47:08;15.80;99.90
52125;DHT22;38119;52.710;6.398;2022-08-19T05:49:34;15.80;99.90
52125;DHT22;38119;52.710;6.398;2022-08-19T05:52:06;15.90;99.90
52125;DHT22;38119;52.710;6.398;2022-08-19T05:54:33;16.00;99.90
52125;DHT22;38119;52.710;6.398;2022-08-19T05:57:00;16.10;99.90
52125;DHT22;38119;52.710;6.398;2022-08-19T05:59:26;16.10;99.90
52125;DHT22;38119;52.710;6.398;2022-08-19T06:01:52;16.20;99.90
52125;DHT22;38119;52.710;6.398;2022-08-19T06:04:21;16.20;99.90
52125;DHT22;38119;52.710;6.398;2022-08-19T06:06:50;16.20;99.90
52125;DHT22;38119;52.710;6.398;2022-08-19T06:09:17;16.30;99.90
52125;DHT22;38119;52.710;6.398;2022-08-19T06:11:55;16.30;99.90
52125;DHT22;38119;52.710;6.398;2022-08-19T06:14:26;16.50;99.90
52125;DHT22;38119;52.710;6.398;2022-08-19T06:16:52;16.50;99.90
52125;DHT22;38119;52.710;6.398;2022-08-19T06:19:20;16.50;99.90
52125;DHT22;38119;52.710;6.398;2022-08-19T06:21:48;16.50;99.90
52125;DHT22;38119;52.710;6.398;2022-08-19T06:24:18;16.50;99.90
52125;DHT22;38119;52.710;6.398;2022-08-19T06:26:47;16.60;99.90
52125;DHT22;38119;52.710;6.398;2022-08-19T06:29:15;16.60;99.90
52125;DHT22;38119;52.710;6.398;2022-08-19T06:31:47;16.70;99.90
52125;DHT22;38119;52.710;6.398;2022-08-19T06:34:18;16.70;99.90
52125;DHT22;38119;52.710;6.398;2022-08-19T06:36:49;16.80;99.90
52125;DHT22;38119;52.710;6.398;2022-08-19T06:39:22;16.90;99.90
52125;DHT22;38119;52.710;6.398;2022-08-19T06:41:53;16.90;99.90
52125;DHT22;38119;52.710;6.398;2022-08-19T06:44:21;16.90;99.90
52125;DHT22;38119;52.710;6.398;2022-08-19T06:46:46;17.00;99.90
52125;DHT22;38119;52.710;6.398;2022-08-19T06:49:14;17.10;99.90
52125;DHT22;38119;52.710;6.398;2022-08-19T06:51:44;17.20;99.90
52125;DHT22;38119;52.710;6.398;2022-08-19T06:54:14;17.20;99.90
52125;DHT22;38119;52.710;6.398;2022-08-19T06:56:39;17.30;99.90
52125;DHT22;38119;52.710;6.398;2022-08-19T06:59:08;17.40;99.90
52125;DHT22;38119;52.710;6.398;2022-08-19T07:01:41;17.50;99.90
52125;DHT22;38119;52.710;6.398;2022-08-19T07:04:08;17.50;99.90
52125;DHT22;38119;52.710;6.398;2022-08-19T07:06:34;17.60;99.90
52125;DHT22;38119;52.710;6.398;2022-08-19T07:09:01;17.70;99.90
52125;DHT22;38119;52.710;6.398;2022-08-19T07:11:27;17.80;99.90
52125;DHT22;38119;52.710;6.398;2022-08-19T07:13:53;17.80;99.90
52125;DHT22;38119;52.710;6.398;2022-08-19T07:16:20;17.90;99.90
52125;DHT22;38119;52.710;6.398;2022-08-19T07:18:48;18.00;99.90
52125;DHT22;38119;52.710;6.398;2022-08-19T07:21:22;18.10;99.90
52125;DHT22;38119;52.710;6.398;2022-08-19T07:23:50;18.10;99.90
52125;DHT22;38119;52.710;6.398;2022-08-19T07:26:17;18.20;99.90
52125;DHT22;38119;52.710;6.398;2022-08-19T07:28:45;18.30;99.90
52125;DHT22;38119;52.710;6.398;2022-08-19T07:31:13;18.40;99.90
52125;DHT22;38119;52.710;6.398;2022-08-19T07:33:39;18.40;99.90
52125;DHT22;38119;52.710;6.398;2022-08-19T07:36:07;18.50;99.90
52125;DHT22;38119;52.710;6.398;2022-08-19T07:38:37;18.50;99.90
52125;DHT22;38119;52.710;6.398;2022-08-19T07:41:05;18.60;99.90
52125;DHT22;38119;52.710;6.398;2022-08-19T07:43:31;18.70;99.90
52125;DHT22;38119;52.710;6.398;2022-08-19T07:45:57;18.80;99.90
52125;DHT22;38119;52.710;6.398;2022-08-19T07:48:27;18.90;99.90
52125;DHT22;38119;52.710;6.398;2022-08-19T07:50:59;18.90;99.90
52125;DHT22;38119;52.710;6.398;2022-08-19T07:53:28;19.10;99.90
52125;DHT22;38119;52.710;6.398;2022-08-19T07:55:54;19.10;99.90
52125;DHT22;38119;52.710;6.398;2022-08-19T07:58:22;19.20;99.90
52125;DHT22;38119;52.710;6.398;2022-08-19T08:00:49;19.30;99.90
52125;DHT22;38119;52.710;6.398;2022-08-19T08:03:17;19.40;99.90
52125;DHT22;38119;52.710;6.398;2022-08-19T08:05:45;19.40;99.90
52125;DHT22;38119;52.710;6.398;2022-08-19T08:08:30;19.50;99.90
52125;DHT22;38119;52.710;6.398;2022-08-19T08:11:05;19.70;99.90
52125;DHT22;38119;52.710;6.398;2022-08-19T08:13:33;19.70;99.90
52125;DHT22;38119;52.710;6.398;2022-08-19T08:16:01;19.80;99.90
52125;DHT22;38119;52.710;6.398;2022-08-19T08:18:27;19.80;99.90
52125;DHT22;38119;52.710;6.398;2022-08-19T08:20:54;19.90;99.90
52125;DHT22;38119;52.710;6.398;2022-08-19T08:23:19;20.00;99.90
52125;DHT22;38119;52.710;6.398;2022-08-19T08:25:49;20.00;99.90
52125;DHT22;38119;52.710;6.398;2022-08-19T08:28:15;20.10;99.90
52125;DHT22;38119;52.710;6.398;2022-08-19T08:30:45;20.20;99.90
52125;DHT22;38119;52.710;6.398;2022-08-19T08:33:14;20.30;99.90
52125;DHT22;38119;52.710;6.398;2022-08-19T08:35:40;20.30;99.90
52125;DHT22;38119;52.710;6.398;2022-08-19T08:38:07;20.40;99.90
52125;DHT22;38119;52.710;6.398;2022-08-19T08:46:08;21.00;99.90
52125;DHT22;38119;52.710;6.398;2022-08-19T08:51:27;21.30;99.90
52125;DHT22;38119;52.710;6.398;2022-08-19T08:53:54;21.50;99.90
52125;DHT22;38119;52.710;6.398;2022-08-19T08:56:21;21.70;99.90
52125;DHT22;38119;52.710;6.398;2022-08-19T08:59:07;21.80;99.90
52125;DHT22;38119;52.710;6.398;2022-08-19T09:01:35;21.90;99.90
52125;DHT22;38119;52.710;6.398;2022-08-19T09:04:07;22.10;99.90
52125;DHT22;38119;52.710;6.398;2022-08-19T09:09:34;22.50;99.90
52125;DHT22;38119;52.710;6.398;2022-08-19T09:14:50;22.80;99.90
52125;DHT22;38119;52.710;6.398;2022-08-19T09:17:26;23.00;99.90
52125;DHT22;38119;52.710;6.398;2022-08-19T09:20:03;23.10;99.90
52125;DHT22;38119;52.710;6.398;2022-08-19T09:22:33;23.10;99.90
52125;DHT22;38119;52.710;6.398;2022-08-19T09:24:59;23.30;99.90
52125;DHT22;38119;52.710;6.398;2022-08-19T09:27:26;23.40;99.90
52125;DHT22;38119;52.710;6.398;2022-08-19T09:29:53;23.40;99.90
52125;DHT22;38119;52.710;6.398;2022-08-19T09:32:20;23.60;99.90
52125;DHT22;38119;52.710;6.398;2022-08-19T09:34:46;23.60;99.90
52125;DHT22;38119;52.710;6.398;2022-08-19T09:37:12;23.80;99.90
52125;DHT22;38119;52.710;6.398;2022-08-19T09:39:39;23.90;99.90
52125;DHT22;38119;52.710;6.398;2022-08-19T09:42:07;24.00;99.90
52125;DHT22;38119;52.710;6.398;2022-08-19T09:44:38;24.30;99.90
52125;DHT22;38119;52.710;6.398;2022-08-19T09:47:04;24.50;99.90
52125;DHT22;38119;52.710;6.398;2022-08-19T09:49:30;24.60;99.90
52125;DHT22;38119;52.710;6.398;2022-08-19T09:51:56;24.70;99.90
52125;DHT22;38119;52.710;6.398;2022-08-19T09:54:23;24.80;99.90
52125;DHT22;38119;52.710;6.398;2022-08-19T09:56:49;24.90;99.90
52125;DHT22;38119;52.710;6.398;2022-08-19T09:59:15;25.10;99.90
52125;DHT22;38119;52.710;6.398;2022-08-19T10:01:40;25.20;99.90
52125;DHT22;38119;52.710;6.398;2022-08-19T10:04:06;25.40;99.90
52125;DHT22;38119;52.710;6.398;2022-08-19T10:06:37;25.50;99.90
52125;DHT22;38119;52.710;6.398;2022-08-19T10:09:05;25.60;99.90
52125;DHT22;38119;52.710;6.398;2022-08-19T10:11:36;25.60;99.90
52125;DHT22;38119;52.710;6.398;2022-08-19T10:14:04;25.70;99.90
52125;DHT22;38119;52.710;6.398;2022-08-19T10:16:32;25.90;99.90
52125;DHT22;38119;52.710;6.398;2022-08-19T10:18:58;26.00;99.90
52125;DHT22;38119;52.710;6.398;2022-08-19T10:21:30;26.10;99.90
52125;DHT22;38119;52.710;6.398;2022-08-19T10:23:58;26.30;99.90
52125;DHT22;38119;52.710;6.398;2022-08-19T10:26:27;26.30;99.70
52125;DHT22;38119;52.710;6.398;2022-08-19T10:28:54;26.20;98.40
52125;DHT22;38119;52.710;6.398;2022-08-19T10:31:28;26.00;98.60
52125;DHT22;38119;52.710;6.398;2022-08-19T10:33:54;26.00;98.50
52125;DHT22;38119;52.710;6.398;2022-08-19T10:36:32;26.20;99.10
52125;DHT22;38119;52.710;6.398;2022-08-19T10:39:01;26.30;98.80
52125;DHT22;38119;52.710;6.398;2022-08-19T10:41:31;26.40;98.70
52125;DHT22;38119;52.710;6.398;2022-08-19T10:44:00;26.40;98.50
52125;DHT22;38119;52.710;6.398;2022-08-19T10:46:27;26.50;99.10
52125;DHT22;38119;52.710;6.398;2022-08-19T10:48:54;26.60;99.10
52125;DHT22;38119;52.710;6.398;2022-08-19T10:51:20;26.60;98.80
52125;DHT22;38119;52.710;6.398;2022-08-19T10:54:05;26.60;99.10
52125;DHT22;38119;52.710;6.398;2022-08-19T10:56:32;26.80;99.30
52125;DHT22;38119;52.710;6.398;2022-08-19T10:59:16;26.80;98.80
52125;DHT22;38119;52.710;6.398;2022-08-19T11:01:44;26.90;98.80
52125;DHT22;38119;52.710;6.398;2022-08-19T11:04:11;26.90;98.30
52125;DHT22;38119;52.710;6.398;2022-08-19T11:06:43;26.90;98.30
52125;DHT22;38119;52.710;6.398;2022-08-19T11:09:09;26.90;98.30
52125;DHT22;38119;52.710;6.398;2022-08-19T11:11:37;27.10;98.10
52125;DHT22;38119;52.710;6.398;2022-08-19T11:14:07;27.00;96.80
52125;DHT22;38119;52.710;6.398;2022-08-19T11:16:34;26.90;95.80
52125;DHT22;38119;52.710;6.398;2022-08-19T11:19:01;26.80;96.50
52125;DHT22;38119;52.710;6.398;2022-08-19T11:21:33;26.80;96.60
52125;DHT22;38119;52.710;6.398;2022-08-19T11:24:03;26.70;96.00
52125;DHT22;38119;52.710;6.398;2022-08-19T11:26:30;26.70;96.00
52125;DHT22;38119;52.710;6.398;2022-08-19T11:28:57;26.70;96.20
52125;DHT22;38119;52.710;6.398;2022-08-19T11:31:26;26.80;96.60
52125;DHT22;38119;52.710;6.398;2022-08-19T11:33:53;26.70;96.20
52125;DHT22;38119;52.710;6.398;2022-08-19T11:36:20;26.80;96.30
52125;DHT22;38119;52.710;6.398;2022-08-19T11:38:48;26.70;96.00
52125;DHT22;38119;52.710;6.398;2022-08-19T11:41:16;26.80;95.70
52125;DHT22;38119;52.710;6.398;2022-08-19T11:43:42;26.90;94.80
52125;DHT22;38119;52.710;6.398;2022-08-19T11:46:11;26.90;94.30
52125;DHT22;38119;52.710;6.398;2022-08-19T11:48:39;26.90;94.90
52125;DHT22;38119;52.710;6.398;2022-08-19T11:51:07;27.10;95.40
52125;DHT22;38119;52.710;6.398;2022-08-19T11:53:34;27.20;95.00
52125;DHT22;38119;52.710;6.398;2022-08-19T11:56:01;27.30;94.70
52125;DHT22;38119;52.710;6.398;2022-08-19T11:58:27;27.40;93.80
52125;DHT22;38119;52.710;6.398;2022-08-19T12:00:54;27.40;93.70
52125;DHT22;38119;52.710;6.398;2022-08-19T12:03:21;27.40;93.80
52125;DHT22;38119;52.710;6.398;2022-08-19T12:05:47;27.50;93.20
52125;DHT22;38119;52.710;6.398;2022-08-19T12:08:13;27.50;92.10
52125;DHT22;38119;52.710;6.398;2022-08-19T12:10:39;27.50;92.50
52125;DHT22;38119;52.710;6.398;2022-08-19T12:13:08;27.50;92.40
52125;DHT22;38119;52.710;6.398;2022-08-19T12:15:39;27.50;92.50
52125;DHT22;38119;52.710;6.398;2022-08-19T12:18:08;27.60;91.80
52125;DHT22;38119;52.710;6.398;2022-08-19T12:20:38;27.60;91.80
52125;DHT22;38119;52.710;6.398;2022-08-19T12:23:06;27.70;91.90
52125;DHT22;38119;52.710;6.398;2022-08-19T12:25:33;27.70;91.00
52125;DHT22;38119;52.710;6.398;2022-08-19T12:28:00;27.50;90.20
52125;DHT22;38119;52.710;6.398;2022-08-19T12:30:26;27.30;90.60
52125;DHT22;38119;52.710;6.398;2022-08-19T12:32:52;27.20;91.10
52125;DHT22;38119;52.710;6.398;2022-08-19T12:35:19;27.30;91.50
52125;DHT22;38119;52.710;6.398;2022-08-19T12:37:49;27.40;91.40
52125;DHT22;38119;52.710;6.398;2022-08-19T12:40:15;27.50;91.40
52125;DHT22;38119;52.710;6.398;2022-08-19T12:42:44;27.30;91.00
52125;DHT22;38119;52.710;6.398;2022-08-19T12:45:11;27.40;91.40
52125;DHT22;38119;52.710;6.398;2022-08-19T12:47:37;27.30;91.40
52125;DHT22;38119;52.710;6.398;2022-08-19T12:50:03;27.30;91.20
52125;DHT22;38119;52.710;6.398;2022-08-19T12:52:34;27.20;91.10
52125;DHT22;38119;52.710;6.398;2022-08-19T12:55:04;27.20;91.50
52125;DHT22;38119;52.710;6.398;2022-08-19T12:57:31;27.20;91.70
52125;DHT22;38119;52.710;6.398;2022-08-19T13:00:21;27.10;92.00
52125;DHT22;38119;52.710;6.398;2022-08-19T13:02:48;27.10;92.10
52125;DHT22;38119;52.710;6.398;2022-08-19T13:05:19;27.00;92.30
52125;DHT22;38119;52.710;6.398;2022-08-19T13:07:46;27.10;92.20
52125;DHT22;38119;52.710;6.398;2022-08-19T13:10:15;27.10;91.20
52125;DHT22;38119;52.710;6.398;2022-08-19T13:12:42;27.10;91.00
52125;DHT22;38119;52.710;6.398;2022-08-19T13:15:09;27.10;91.10
52125;DHT22;38119;52.710;6.398;2022-08-19T13:17:35;27.10;91.10
52125;DHT22;38119;52.710;6.398;2022-08-19T13:20:02;27.00;90.90
52125;DHT22;38119;52.710;6.398;2022-08-19T13:22:28;26.80;90.90
52125;DHT22;38119;52.710;6.398;2022-08-19T13:24:53;26.80;91.50
52125;DHT22;38119;52.710;6.398;2022-08-19T13:27:22;26.80;91.80
52125;DHT22;38119;52.710;6.398;2022-08-19T13:29:48;26.90;91.80
52125;DHT22;38119;52.710;6.398;2022-08-19T13:32:33;27.10;92.00
52125;DHT22;38119;52.710;6.398;2022-08-19T13:35:17;27.20;91.10
52125;DHT22;38119;52.710;6.398;2022-08-19T13:37:44;27.20;90.50
52125;DHT22;38119;52.710;6.398;2022-08-19T13:40:19;27.20;89.80
52125;DHT22;38119;52.710;6.398;2022-08-19T13:42:50;27.20;88.40
52125;DHT22;38119;52.710;6.398;2022-08-19T13:45:19;27.20;88.00
52125;DHT22;38119;52.710;6.398;2022-08-19T13:47:47;27.30;89.50
52125;DHT22;38119;52.710;6.398;2022-08-19T13:50:15;27.50;89.60
52125;DHT22;38119;52.710;6.398;2022-08-19T13:52:41;27.50;88.30
52125;DHT22;38119;52.710;6.398;2022-08-19T13:55:10;27.50;88.70
52125;DHT22;38119;52.710;6.398;2022-08-19T13:57:36;27.50;90.00
52125;DHT22;38119;52.710;6.398;2022-08-19T14:00:09;27.60;90.20
52125;DHT22;38119;52.710;6.398;2022-08-19T14:02:36;27.60;90.20
52125;DHT22;38119;52.710;6.398;2022-08-19T14:05:04;27.60;90.20
52125;DHT22;38119;52.710;6.398;2022-08-19T14:07:31;27.70;90.20
52125;DHT22;38119;52.710;6.398;2022-08-19T14:09:57;27.70;90.20
52125;DHT22;38119;52.710;6.398;2022-08-19T14:12:22;27.80;90.10
52125;DHT22;38119;52.710;6.398;2022-08-19T14:14:48;27.80;90.30
52125;DHT22;38119;52.710;6.398;2022-08-19T14:17:14;27.70;90.40
52125;DHT22;38119;52.710;6.398;2022-08-19T14:19:41;27.70;90.70
52125;DHT22;38119;52.710;6.398;2022-08-19T14:22:06;27.60;90.90
52125;DHT22;38119;52.710;6.398;2022-08-19T14:24:32;27.60;91.00
52125;DHT22;38119;52.710;6.398;2022-08-19T14:26:58;27.50;90.90
52125;DHT22;38119;52.710;6.398;2022-08-19T14:29:25;27.40;90.90
52125;DHT22;38119;52.710;6.398;2022-08-19T14:31:51;27.30;91.00
52125;DHT22;38119;52.710;6.398;2022-08-19T14:34:17;27.30;91.20
52125;DHT22;38119;52.710;6.398;2022-08-19T14:36:42;27.20;91.50
52125;DHT22;38119;52.710;6.398;2022-08-19T14:39:09;27.10;91.80
52125;DHT22;38119;52.710;6.398;2022-08-19T14:41:39;27.00;92.10
52125;DHT22;38119;52.710;6.398;2022-08-19T14:44:05;27.00;92.40
52125;DHT22;38119;52.710;6.398;2022-08-19T14:46:30;27.00;92.40
52125;DHT22;38119;52.710;6.398;2022-08-19T14:48:56;26.80;92.10
52125;DHT22;38119;52.710;6.398;2022-08-19T14:51:24;26.70;92.30
52125;DHT22;38119;52.710;6.398;2022-08-19T14:53:52;26.60;92.60
52125;DHT22;38119;52.710;6.398;2022-08-19T14:56:20;26.40;93.00
52125;DHT22;38119;52.710;6.398;2022-08-19T14:58:46;26.30;93.40
52125;DHT22;38119;52.710;6.398;2022-08-19T15:01:12;26.20;93.80
52125;DHT22;38119;52.710;6.398;2022-08-19T15:03:39;26.10;94.20
52125;DHT22;38119;52.710;6.398;2022-08-19T15:06:06;26.00;94.60
52125;DHT22;38119;52.710;6.398;2022-08-19T15:08:33;25.90;94.90
52125;DHT22;38119;52.710;6.398;2022-08-19T15:11:00;25.90;95.30
52125;DHT22;38119;52.710;6.398;2022-08-19T15:13:28;25.70;95.70
52125;DHT22;38119;52.710;6.398;2022-08-19T15:15:54;25.50;96.00
52125;DHT22;38119;52.710;6.398;2022-08-19T15:18:23;25.40;96.50
52125;DHT22;38119;52.710;6.398;2022-08-19T15:20:49;25.30;96.90
52125;DHT22;38119;52.710;6.398;2022-08-19T15:23:15;25.20;97.30
52125;DHT22;38119;52.710;6.398;2022-08-19T15:25:42;25.10;97.40
52125;DHT22;38119;52.710;6.398;2022-08-19T15:28:09;25.00;97.70
52125;DHT22;38119;52.710;6.398;2022-08-19T15:30:39;24.90;98.00
52125;DHT22;38119;52.710;6.398;2022-08-19T15:33:05;24.80;98.30
52125;DHT22;38119;52.710;6.398;2022-08-19T15:35:32;24.70;98.70
52125;DHT22;38119;52.710;6.398;2022-08-19T15:37:58;24.70;98.90
52125;DHT22;38119;52.710;6.398;2022-08-19T15:40:25;24.60;99.10
52125;DHT22;38119;52.710;6.398;2022-08-19T15:42:52;24.60;99.30
52125;DHT22;38119;52.710;6.398;2022-08-19T15:45:19;24.50;99.70
52125;DHT22;38119;52.710;6.398;2022-08-19T15:47:46;24.50;99.90
52125;DHT22;38119;52.710;6.398;2022-08-19T15:50:17;24.40;99.90
52125;DHT22;38119;52.710;6.398;2022-08-19T15:52:44;24.30;99.90
52125;DHT22;38119;52.710;6.398;2022-08-19T15:55:10;24.30;99.90
52125;DHT22;38119;52.710;6.398;2022-08-19T15:57:35;24.20;99.90
52125;DHT22;38119;52.710;6.398;2022-08-19T16:00:20;24.20;99.90
52125;DHT22;38119;52.710;6.398;2022-08-19T16:03:04;24.20;99.90
52125;DHT22;38119;52.710;6.398;2022-08-19T16:05:48;24.20;99.90
52125;DHT22;38119;52.710;6.398;2022-08-19T16:08:32;24.10;99.90
52125;DHT22;38119;52.710;6.398;2022-08-19T16:10:58;24.10;99.90
52125;DHT22;38119;52.710;6.398;2022-08-19T16:13:27;24.00;99.90
52125;DHT22;38119;52.710;6.398;2022-08-19T16:15:53;24.00;99.90
52125;DHT22;38119;52.710;6.398;2022-08-19T16:18:21;24.00;99.90
52125;DHT22;38119;52.710;6.398;2022-08-19T16:20:47;24.00;99.90
52125;DHT22;38119;52.710;6.398;2022-08-19T16:23:12;24.00;99.90
52125;DHT22;38119;52.710;6.398;2022-08-19T16:25:38;23.90;99.90
52125;DHT22;38119;52.710;6.398;2022-08-19T16:28:04;23.90;99.90
52125;DHT22;38119;52.710;6.398;2022-08-19T16:30:29;23.90;99.90
52125;DHT22;38119;52.710;6.398;2022-08-19T16:32:55;23.90;99.90
52125;DHT22;38119;52.710;6.398;2022-08-19T16:35:21;23.90;99.90